sensor_id;sensor_type;location;lat;lon;timestamp;pressure;altitude;pressure_sealevel;temperature;humidity
36748;BME280;22716;51.556;5.080;2023-05-10T00:01:57;100169.09;;;13.45;100.00
36748;BME280;22716;51.556;5.080;2023-05-10T00:04:26;100162.97;;;13.45;100.00
36748;BME280;22716;51.556;5.080;2023-05-10T00:06:58;100163.06;;;13.42;100.00
36748;BME280;22716;51.556;5.080;2023-05-10T00:09:27;100158.72;;;13.41;100.00
36748;BME280;22716;51.556;5.080;2023-05-10T00:11:56;100165.56;;;13.46;100.00
36748;BME280;22716;51.556;5.080;2023-05-10T00:14:27;100164.69;;;13.46;100.00
36748;BME280;22716;51.556;5.080;2023-05-10T00:16:56;100165.69;;;13.42;100.00
36748;BME280;22716;51.556;5.080;2023-05-10T00:19:25;100162.06;;;13.46;100.00
36748;BME280;22716;51.556;5.080;2023-05-10T00:21:54;100172.53;;;13.47;100.00
36748;BME280;22716;51.556;5.080;2023-05-10T00:24:25;100171.69;;;13.47;100.00
36748;BME280;22716;51.556;5.080;2023-05-10T00:26:55;100172.53;;;13.47;100.00
36748;BME280;22716;51.556;5.080;2023-05-10T00:29:24;100160.53;;;13.39;100.00
36748;BME280;22716;51.556;5.080;2023-05-10T00:31:54;100169.16;;;13.44;100.00
36748;BME280;22716;51.556;5.080;2023-05-10T00:34:23;100169.19;;;13.42;100.00
36748;BME280;22716;51.556;5.080;2023-05-10T00:36:53;100173.47;;;13.45;100.00
36748;BME280;22716;51.556;5.080;2023-05-10T00:39:26;100170.94;;;13.42;100.00
36748;BME280;22716;51.556;5.080;2023-05-10T00:41:55;100168.22;;;13.45;100.00
36748;BME280;22716;51.556;5.080;2023-05-10T00:44:26;100168.22;;;13.45;100.00
36748;BME280;22716;51.556;5.080;2023-05-10T00:46:57;100170.84;;;13.45;100.00
36748;BME280;22716;51.556;5.080;2023-05-10T00:49:26;100159.56;;;13.41;100.00
36748;BME280;22716;51.556;5.080;2023-05-10T00:51:56;100158.72;;;13.41;100.00
36748;BME280;22716;51.556;5.080;2023-05-10T00:54:27;100143.91;;;13.38;100.00
36748;BME280;22716;51.556;5.080;2023-05-10T00:56:57;100151.72;;;13.40;100.00
36748;BME280;22716;51.556;5.080;2023-05-10T00:59:26;100149.09;;;13.40;100.00
36748;BME280;22716;51.556;5.080;2023-05-10T01:01:55;100148.41;;;13.35;100.00
36748;BME280;22716;51.556;5.080;2023-05-10T01:04:24;100146.53;;;13.38;100.00
36748;BME280;22716;51.556;5.080;2023-05-10T01:06:54;100137.97;;;13.32;100.00
36748;BME280;22716;51.556;5.080;2023-05-10T01:09:27;100148.22;;;13.39;100.00
36748;BME280;22716;51.556;5.080;2023-05-10T01:11:57;100147.34;;;13.40;100.00
36748;BME280;22716;51.556;5.080;2023-05-10T01:14:26;100134.41;;;13.33;100.00
36748;BME280;22716;51.556;5.080;2023-05-10T01:16:56;100146.47;;;13.40;100.00
36748;BME280;22716;51.556;5.080;2023-05-10T01:19:28;100152.53;;;13.42;100.00
36748;BME280;22716;51.556;5.080;2023-05-10T01:22:06;100154.25;;;13.43;100.00
36748;BME280;22716;51.556;5.080;2023-05-10T01:25:00;100148.19;;;13.41;100.00
36748;BME280;22716;51.556;5.080;2023-05-10T01:33:47;100162.19;;;13.41;100.00
36748;BME280;22716;51.556;5.080;2023-05-10T01:36:26;100145.03;;;13.30;100.00
36748;BME280;22716;51.556;5.080;2023-05-10T01:39:01;100163.16;;;13.39;100.00
36748;BME280;22716;51.556;5.080;2023-05-10T01:41:39;100159.69;;;13.38;100.00
36748;BME280;22716;51.556;5.080;2023-05-10T01:44:17;100165.06;;;13.35;100.00
36748;BME280;22716;51.556;5.080;2023-05-10T01:46:50;100171.06;;;13.39;100.00
36748;BME280;22716;51.556;5.080;2023-05-10T01:49:29;100176.22;;;13.42;100.00
36748;BME280;22716;51.556;5.080;2023-05-10T01:52:06;100165.09;;;13.34;100.00
36748;BME280;22716;51.556;5.080;2023-05-10T01:54:38;100173.69;;;13.39;100.00
36748;BME280;22716;51.556;5.080;2023-05-10T01:57:11;100174.50;;;13.41;100.00
36748;BME280;22716;51.556;5.080;2023-05-10T01:59:43;100165.69;;;13.42;100.00
36748;BME280;22716;51.556;5.080;2023-05-10T02:02:15;100163.16;;;13.39;100.00
36748;BME280;22716;51.556;5.080;2023-05-10T02:04:47;100166.53;;;13.44;100.00
36748;BME280;22716;51.556;5.080;2023-05-10T02:07:18;100167.53;;;13.40;100.00
36748;BME280;22716;51.556;5.080;2023-05-10T02:09:48;100152.03;;;13.31;100.00
36748;BME280;22716;51.556;5.080;2023-05-10T02:12:17;100174.44;;;13.42;100.00
36748;BME280;22716;51.556;5.080;2023-05-10T02:14:47;100178.03;;;13.40;100.00
36748;BME280;22716;51.556;5.080;2023-05-10T02:17:17;100168.41;;;13.39;100.00
36748;BME280;22716;51.556;5.080;2023-05-10T02:19:49;100176.31;;;13.39;100.00
36748;BME280;22716;51.556;5.080;2023-05-10T02:22:21;100177.94;;;13.43;100.00
36748;BME280;22716;51.556;5.080;2023-05-10T02:24:50;100179.78;;;13.41;100.00
36748;BME280;22716;51.556;5.080;2023-05-10T02:27:21;100177.16;;;13.41;100.00
36748;BME280;22716;51.556;5.080;2023-05-10T02:29:51;100173.75;;;13.37;100.00
36748;BME280;22716;51.556;5.080;2023-05-10T02:32:21;100181.56;;;13.39;100.00
36748;BME280;22716;51.556;5.080;2023-05-10T02:34:54;100191.28;;;13.38;100.00
36748;BME280;22716;51.556;5.080;2023-05-10T02:37:25;100185.13;;;13.38;100.00
36748;BME280;22716;51.556;5.080;2023-05-10T02:39:56;100186.91;;;13.37;100.00
36748;BME280;22716;51.556;5.080;2023-05-10T02:42:27;100189.47;;;13.39;100.00
36748;BME280;22716;51.556;5.080;2023-05-10T02:45:00;100203.59;;;13.36;100.00
36748;BME280;22716;51.556;5.080;2023-05-10T02:47:30;100195.84;;;13.32;100.00
36748;BME280;22716;51.556;5.080;2023-05-10T02:50:02;100199.28;;;13.34;100.00
36748;BME280;22716;51.556;5.080;2023-05-10T02:52:38;100201.03;;;13.35;100.00
36748;BME280;22716;51.556;5.080;2023-05-10T02:55:11;100201.91;;;13.34;100.00
36748;BME280;22716;51.556;5.080;2023-05-10T02:57:46;100189.22;;;13.20;100.00
36748;BME280;22716;51.556;5.080;2023-05-10T03:00:18;100208.16;;;13.31;100.00
36748;BME280;22716;51.556;5.080;2023-05-10T03:02:47;100203.88;;;13.27;100.00
36748;BME280;22716;51.556;5.080;2023-05-10T03:05:18;100210.81;;;13.30;100.00
36748;BME280;22716;51.556;5.080;2023-05-10T03:07:48;100209.09;;;13.29;100.00
36748;BME280;22716;51.556;5.080;2023-05-10T03:10:17;100205.63;;;13.27;100.00
36748;BME280;22716;51.556;5.080;2023-05-10T03:12:59;100203.00;;;13.27;100.00
36748;BME280;22716;51.556;5.080;2023-05-10T03:15:38;100206.59;;;13.24;100.00
36748;BME280;22716;51.556;5.080;2023-05-10T03:18:17;100203.97;;;13.24;100.00
36748;BME280;22716;51.556;5.080;2023-05-10T03:20:51;100197.19;;;13.17;100.00
36748;BME280;22716;51.556;5.080;2023-05-10T03:23:28;100198.91;;;13.18;100.00
36748;BME280;22716;51.556;5.080;2023-05-10T03:25:59;100206.94;;;13.14;100.00
36748;BME280;22716;51.556;5.080;2023-05-10T03:28:30;100218.47;;;13.10;100.00
36748;BME280;22716;51.556;5.080;2023-05-10T03:31:01;100201.22;;;13.00;100.00
36748;BME280;22716;51.556;5.080;2023-05-10T03:33:33;100218.56;;;13.05;100.00
36748;BME280;22716;51.556;5.080;2023-05-10T03:36:06;100220.41;;;13.03;100.00
36748;BME280;22716;51.556;5.080;2023-05-10T03:38:35;100224.03;;;12.99;100.00
36748;BME280;22716;51.556;5.080;2023-05-10T03:41:04;100225.78;;;12.99;100.00
36748;BME280;22716;51.556;5.080;2023-05-10T03:43:33;100224.03;;;12.99;100.00
36748;BME280;22716;51.556;5.080;2023-05-10T03:46:02;100203.31;;;12.88;100.00
36748;BME280;22716;51.556;5.080;2023-05-10T03:48:32;100226.88;;;12.91;100.00
36748;BME280;22716;51.556;5.080;2023-05-10T03:51:05;100222.47;;;12.92;100.00
36748;BME280;22716;51.556;5.080;2023-05-10T03:53:34;100213.19;;;12.80;100.00
36748;BME280;22716;51.556;5.080;2023-05-10T03:56:04;100215.91;;;12.77;100.00
36748;BME280;22716;51.556;5.080;2023-05-10T03:58:34;100228.06;;;12.81;100.00
36748;BME280;22716;51.556;5.080;2023-05-10T04:01:02;100235.94;;;12.81;100.00
36748;BME280;22716;51.556;5.080;2023-05-10T04:03:31;100234.28;;;12.77;100.00
36748;BME280;22716;51.556;5.080;2023-05-10T04:06:05;100229.91;;;12.78;100.00
36748;BME280;22716;51.556;5.080;2023-05-10T04:08:37;100236.13;;;12.75;100.00
36748;BME280;22716;51.556;5.080;2023-05-10T04:11:06;100232.69;;;12.73;100.00
36748;BME280;22716;51.556;5.080;2023-05-10T04:13:36;100237.84;;;12.76;100.00
36748;BME280;22716;51.556;5.080;2023-05-10T04:16:05;100234.38;;;12.74;100.00
36748;BME280;22716;51.556;5.080;2023-05-10T04:18:34;100237.88;;;12.75;100.00
36748;BME280;22716;51.556;5.080;2023-05-10T04:21:11;100230.00;;;12.75;100.00
36748;BME280;22716;51.556;5.080;2023-05-10T04:23:41;100234.34;;;12.76;100.00
36748;BME280;22716;51.556;5.080;2023-05-10T04:26:10;100229.19;;;12.73;100.00
36748;BME280;22716;51.556;5.080;2023-05-10T04:28:39;100238.75;;;12.75;100.00
36748;BME280;22716;51.556;5.080;2023-05-10T04:31:09;100227.50;;;12.70;100.00
36748;BME280;22716;51.556;5.080;2023-05-10T04:33:38;100242.16;;;12.79;100.00
36748;BME280;22716;51.556;5.080;2023-05-10T04:36:10;100234.28;;;12.77;100.00
36748;BME280;22716;51.556;5.080;2023-05-10T04:38:39;100244.81;;;12.77;100.00
36748;BME280;22716;51.556;5.080;2023-05-10T04:41:09;100236.97;;;12.76;100.00
36748;BME280;22716;51.556;5.080;2023-05-10T04:43:39;100237.94;;;12.73;100.00
36748;BME280;22716;51.556;5.080;2023-05-10T04:46:07;100240.50;;;12.75;100.00
36748;BME280;22716;51.556;5.080;2023-05-10T04:48:38;100226.75;;;12.65;100.00
36748;BME280;22716;51.556;5.080;2023-05-10T04:51:06;100243.03;;;12.79;100.00
36748;BME280;22716;51.556;5.080;2023-05-10T04:53:38;100236.06;;;12.77;100.00
36748;BME280;22716;51.556;5.080;2023-05-10T04:56:07;100219.81;;;12.64;100.00
36748;BME280;22716;51.556;5.080;2023-05-10T04:58:37;100233.63;;;12.71;100.00
36748;BME280;22716;51.556;5.080;2023-05-10T05:01:06;100239.56;;;12.77;100.00
36748;BME280;22716;51.556;5.080;2023-05-10T05:03:36;100241.31;;;12.77;100.00
36748;BME280;22716;51.556;5.080;2023-05-10T05:06:06;100243.09;;;12.76;100.00
36748;BME280;22716;51.556;5.080;2023-05-10T05:08:39;100245.81;;;12.73;100.00
36748;BME280;22716;51.556;5.080;2023-05-10T05:11:08;100252.78;;;12.74;100.00
36748;BME280;22716;51.556;5.080;2023-05-10T05:13:36;100260.81;;;12.70;100.00
36748;BME280;22716;51.556;5.080;2023-05-10T05:16:06;100258.13;;;12.71;100.00
36748;BME280;22716;51.556;5.080;2023-05-10T05:18:36;100263.38;;;12.71;100.00
36748;BME280;22716;51.556;5.080;2023-05-10T05:21:13;100265.19;;;12.71;100.00
36748;BME280;22716;51.556;5.080;2023-05-10T05:23:45;100268.53;;;12.76;100.00
36748;BME280;22716;51.556;5.080;2023-05-10T05:26:15;100267.50;;;12.80;100.00
36748;BME280;22716;51.556;5.080;2023-05-10T05:28:44;100258.78;;;12.79;100.00
36748;BME280;22716;51.556;5.080;2023-05-10T05:31:14;100276.00;;;12.89;100.00
36748;BME280;22716;51.556;5.080;2023-05-10T05:33:44;100275.13;;;12.90;100.00
36748;BME280;22716;51.556;5.080;2023-05-10T05:36:13;100267.22;;;12.90;100.00
36748;BME280;22716;51.556;5.080;2023-05-10T05:38:45;100279.34;;;12.94;100.00
36748;BME280;22716;51.556;5.080;2023-05-10T05:41:14;100277.75;;;12.90;100.00
36748;BME280;22716;51.556;5.080;2023-05-10T05:43:44;100277.75;;;12.90;100.00
36748;BME280;22716;51.556;5.080;2023-05-10T05:46:12;100271.75;;;12.85;100.00
36748;BME280;22716;51.556;5.080;2023-05-10T05:48:42;100277.75;;;12.90;100.00
36748;BME280;22716;51.556;5.080;2023-05-10T05:51:10;100281.97;;;12.94;100.00
36748;BME280;22716;51.556;5.080;2023-05-10T05:53:39;100288.00;;;13.00;100.00
36748;BME280;22716;51.556;5.080;2023-05-10T05:56:11;100287.13;;;12.99;100.00
36748;BME280;22716;51.556;5.080;2023-05-10T05:58:39;100293.03;;;13.07;100.00
36748;BME280;22716;51.556;5.080;2023-05-10T06:01:09;100294.78;;;13.07;100.00
36748;BME280;22716;51.556;5.080;2023-05-10T06:03:38;100303.28;;;13.18;100.00
36748;BME280;22716;51.556;5.080;2023-05-10T06:06:07;100292.69;;;13.19;100.00
36748;BME280;22716;51.556;5.080;2023-05-10T06:08:37;100292.59;;;13.24;100.00
36748;BME280;22716;51.556;5.080;2023-05-10T06:11:10;100289.81;;;13.27;100.00
36748;BME280;22716;51.556;5.080;2023-05-10T06:13:43;100294.00;;;13.34;100.00
36748;BME280;22716;51.556;5.080;2023-05-10T06:16:13;100295.00;;;13.30;100.00
36748;BME280;22716;51.556;5.080;2023-05-10T06:18:42;100306.97;;;13.40;100.00
36748;BME280;22716;51.556;5.080;2023-05-10T06:21:11;100311.38;;;13.39;100.00
36748;BME280;22716;51.556;5.080;2023-05-10T06:23:41;100303.56;;;13.36;100.00
36748;BME280;22716;51.556;5.080;2023-05-10T06:26:12;100315.75;;;13.40;100.00
36748;BME280;22716;51.556;5.080;2023-05-10T06:28:42;100309.78;;;13.34;100.00
36748;BME280;22716;51.556;5.080;2023-05-10T06:31:11;100303.91;;;13.26;100.00
36748;BME280;22716;51.556;5.080;2023-05-10T06:33:41;100318.72;;;13.28;100.00
36748;BME280;22716;51.556;5.080;2023-05-10T06:36:10;100319.72;;;13.24;100.00
36748;BME280;22716;51.556;5.080;2023-05-10T06:38:40;100321.59;;;13.21;100.00
36748;BME280;22716;51.556;5.080;2023-05-10T06:41:08;100319.91;;;13.18;100.00
36748;BME280;22716;51.556;5.080;2023-05-10T06:43:40;100324.34;;;13.16;100.00
36748;BME280;22716;51.556;5.080;2023-05-10T06:46:09;100328.75;;;13.16;100.00
36748;BME280;22716;51.556;5.080;2023-05-10T06:48:38;100335.75;;;13.17;100.00
36748;BME280;22716;51.556;5.080;2023-05-10T06:51:08;100328.75;;;13.16;100.00
36748;BME280;22716;51.556;5.080;2023-05-10T06:53:37;100334.16;;;13.11;100.00
36748;BME280;22716;51.556;5.080;2023-05-10T06:56:07;100332.34;;;13.13;100.00
36748;BME280;22716;51.556;5.080;2023-05-10T06:58:37;100303.88;;;12.95;100.00
36748;BME280;22716;51.556;5.080;2023-05-10T07:01:08;100336.78;;;13.11;100.00
36748;BME280;22716;51.556;5.080;2023-05-10T07:03:37;100326.34;;;13.07;100.00
36748;BME280;22716;51.556;5.080;2023-05-10T07:06:06;100349.75;;;13.17;100.00
36748;BME280;22716;51.556;5.080;2023-05-10T07:08:35;100353.19;;;13.21;100.00
36748;BME280;22716;51.556;5.080;2023-05-10T07:11:06;100351.25;;;13.26;100.00
36748;BME280;22716;51.556;5.080;2023-05-10T07:13:36;100349.31;;;13.32;100.00
36748;BME280;22716;51.556;5.080;2023-05-10T07:16:20;100352.25;;;13.22;100.00
36748;BME280;22716;51.556;5.080;2023-05-10T07:18:49;100355.81;;;13.21;100.00
36748;BME280;22716;51.556;5.080;2023-05-10T07:21:19;100353.25;;;13.18;100.00
36748;BME280;22716;51.556;5.080;2023-05-10T07:23:50;100355.66;;;13.25;100.00
36748;BME280;22716;51.556;5.080;2023-05-10T07:26:19;100359.09;;;13.27;100.00
36748;BME280;22716;51.556;5.080;2023-05-10T07:28:48;100347.53;;;13.33;100.00
36748;BME280;22716;51.556;5.080;2023-05-10T07:31:20;100355.81;;;13.50;100.00
36748;BME280;22716;51.556;5.080;2023-05-10T07:33:50;100360.59;;;13.65;100.00
36748;BME280;22716;51.556;5.080;2023-05-10T07:36:19;100366.56;;;13.98;100.00
36748;BME280;22716;51.556;5.080;2023-05-10T07:38:48;100368.81;;;14.10;100.00
36748;BME280;22716;51.556;5.080;2023-05-10T07:41:17;100370.38;;;14.17;100.00
36748;BME280;22716;51.556;5.080;2023-05-10T07:43:46;100369.41;;;14.20;100.00
36748;BME280;22716;51.556;5.080;2023-05-10T07:46:16;100366.66;;;14.23;100.00
36748;BME280;22716;51.556;5.080;2023-05-10T07:48:47;100369.13;;;14.27;100.00
36748;BME280;22716;51.556;5.080;2023-05-10T07:51:17;100364.69;;;14.29;100.00
36748;BME280;22716;51.556;5.080;2023-05-10T07:53:49;100365.25;;;14.39;100.00
36748;BME280;22716;51.556;5.080;2023-05-10T07:56:22;100368.81;;;14.64;100.00
36748;BME280;22716;51.556;5.080;2023-05-10T07:58:54;100359.53;;;14.52;100.00
36748;BME280;22716;51.556;5.080;2023-05-10T08:01:23;100366.22;;;14.63;100.00
36748;BME280;22716;51.556;5.080;2023-05-10T08:03:54;100373.19;;;14.88;100.00
36748;BME280;22716;51.556;5.080;2023-05-10T08:06:23;100369.78;;;14.86;100.00
36748;BME280;22716;51.556;5.080;2023-05-10T08:08:52;100388.19;;;14.88;100.00
36748;BME280;22716;51.556;5.080;2023-05-10T08:11:22;100388.38;;;15.06;100.00
36748;BME280;22716;51.556;5.080;2023-05-10T08:13:53;100386.69;;;15.05;100.00
36748;BME280;22716;51.556;5.080;2023-05-10T08:16:22;100389.78;;;14.92;100.00
36748;BME280;22716;51.556;5.080;2023-05-10T08:18:55;100396.59;;;14.99;100.00
36748;BME280;22716;51.556;5.080;2023-05-10T08:21:24;100398.25;;;15.26;100.00
36748;BME280;22716;51.556;5.080;2023-05-10T08:23:53;100395.88;;;15.42;100.00
36748;BME280;22716;51.556;5.080;2023-05-10T08:26:23;100404.44;;;15.50;100.00
36748;BME280;22716;51.556;5.080;2023-05-10T08:28:53;100397.59;;;15.43;100.00
36748;BME280;22716;51.556;5.080;2023-05-10T08:31:22;100405.41;;;15.46;100.00
36748;BME280;22716;51.556;5.080;2023-05-10T08:33:50;100401.91;;;15.45;100.00
36748;BME280;22716;51.556;5.080;2023-05-10T08:36:23;100410.16;;;15.61;100.00
36748;BME280;22716;51.556;5.080;2023-05-10T08:38:54;100418.44;;;15.74;100.00
36748;BME280;22716;51.556;5.080;2023-05-10T08:41:23;100410.06;;;15.86;100.00
36748;BME280;22716;51.556;5.080;2023-05-10T08:43:54;100408.69;;;15.99;100.00
36748;BME280;22716;51.556;5.080;2023-05-10T08:46:23;100403.56;;;15.94;100.00
36748;BME280;22716;51.556;5.080;2023-05-10T08:48:54;100412.09;;;15.79;100.00
36748;BME280;22716;51.556;5.080;2023-05-10T08:51:27;100395.19;;;15.61;100.00
36748;BME280;22716;51.556;5.080;2023-05-10T08:53:57;100407.63;;;15.58;100.00
36748;BME280;22716;51.556;5.080;2023-05-10T08:56:28;100413.16;;;15.52;100.00
36748;BME280;22716;51.556;5.080;2023-05-10T08:58:57;100420.13;;;15.53;100.00
36748;BME280;22716;51.556;5.080;2023-05-10T09:01:37;100422.38;;;15.63;100.00
36748;BME280;22716;51.556;5.080;2023-05-10T09:04:14;100421.09;;;15.74;100.00
36748;BME280;22716;51.556;5.080;2023-05-10T09:06:46;100404.75;;;15.87;100.00
36748;BME280;22716;51.556;5.080;2023-05-10T09:09:16;100422.81;;;16.19;100.00
36748;BME280;22716;51.556;5.080;2023-05-10T09:11:46;100430.81;;;16.18;100.00
36748;BME280;22716;51.556;5.080;2023-05-10T09:14:15;100430.09;;;16.14;100.00
36748;BME280;22716;51.556;5.080;2023-05-10T09:16:46;100431.00;;;16.13;100.00
36748;BME280;22716;51.556;5.080;2023-05-10T09:19:16;100440.19;;;16.03;100.00
36748;BME280;22716;51.556;5.080;2023-05-10T09:21:49;100435.44;;;15.90;100.00
36748;BME280;22716;51.556;5.080;2023-05-10T09:24:18;100445.13;;;15.91;100.00
36748;BME280;22716;51.556;5.080;2023-05-10T09:26:48;100438.97;;;15.90;100.00
36748;BME280;22716;51.556;5.080;2023-05-10T09:29:18;100451.81;;;15.99;100.00
36748;BME280;22716;51.556;5.080;2023-05-10T09:31:48;100444.81;;;15.98;100.00
36748;BME280;22716;51.556;5.080;2023-05-10T09:34:29;100450.16;;;15.97;100.00
36748;BME280;22716;51.556;5.080;2023-05-10T09:37:03;100454.63;;;15.95;100.00
36748;BME280;22716;51.556;5.080;2023-05-10T09:39:32;100449.31;;;15.96;100.00
36748;BME280;22716;51.556;5.080;2023-05-10T09:42:04;100455.31;;;16.00;100.00
36748;BME280;22716;51.556;5.080;2023-05-10T09:44:34;100460.53;;;16.01;100.00
36748;BME280;22716;51.556;5.080;2023-05-10T09:47:04;100461.44;;;16.00;100.00
36748;BME280;22716;51.556;5.080;2023-05-10T09:49:32;100460.34;;;16.06;100.00
36748;BME280;22716;51.556;5.080;2023-05-10T09:52:06;100456.88;;;16.05;100.00
36748;BME280;22716;51.556;5.080;2023-05-10T09:54:35;100468.28;;;16.06;100.00
36748;BME280;22716;51.556;5.080;2023-05-10T09:57:04;100454.59;;;15.96;100.00
36748;BME280;22716;51.556;5.080;2023-05-10T09:59:34;100470.44;;;15.96;100.00
36748;BME280;22716;51.556;5.080;2023-05-10T10:02:04;100465.72;;;15.81;100.00
36748;BME280;22716;51.556;5.080;2023-05-10T10:04:49;100475.50;;;15.79;100.00
36748;BME280;22716;51.556;5.080;2023-05-10T10:07:25;100474.75;;;15.76;100.00
36748;BME280;22716;51.556;5.080;2023-05-10T10:09:55;100469.59;;;15.73;100.00
36748;BME280;22716;51.556;5.080;2023-05-10T10:12:25;100476.63;;;15.72;100.00
36748;BME280;22716;51.556;5.080;2023-05-10T10:14:55;100477.19;;;15.80;100.00
36748;BME280;22716;51.556;5.080;2023-05-10T10:17:26;100470.81;;;15.86;100.00
36748;BME280;22716;51.556;5.080;2023-05-10T10:19:57;100477.66;;;15.91;100.00
36748;BME280;22716;51.556;5.080;2023-05-10T10:22:29;100477.31;;;16.00;100.00
36748;BME280;22716;51.556;5.080;2023-05-10T10:24:57;100478.16;;;16.01;100.00
36748;BME280;22716;51.556;5.080;2023-05-10T10:27:36;100482.47;;;16.03;100.00
36748;BME280;22716;51.556;5.080;2023-05-10T10:30:20;100480.53;;;16.08;100.00
36748;BME280;22716;51.556;5.080;2023-05-10T10:33:08;100483.19;;;16.08;100.00
36748;BME280;22716;51.556;5.080;2023-05-10T10:35:43;100490.16;;;16.09;100.00
36748;BME280;22716;51.556;5.080;2023-05-10T10:38:15;100486.38;;;16.16;100.00
36748;BME280;22716;51.556;5.080;2023-05-10T10:40:44;100483.63;;;16.19;100.00
36748;BME280;22716;51.556;5.080;2023-05-10T10:43:24;100475.56;;;16.22;100.00
36748;BME280;22716;51.556;5.080;2023-05-10T10:46:11;100486.19;;;16.21;100.00
36748;BME280;22716;51.556;5.080;2023-05-10T10:48:48;100478.44;;;16.16;100.00
36748;BME280;22716;51.556;5.080;2023-05-10T10:51:17;100474.19;;;16.12;100.00
36748;BME280;22716;51.556;5.080;2023-05-10T10:53:51;100471.44;;;16.15;100.00
36748;BME280;22716;51.556;5.080;2023-05-10T10:56:22;100468.88;;;16.14;100.00
36748;BME280;22716;51.556;5.080;2023-05-10T10:58:51;100484.84;;;16.33;100.00
36748;BME280;22716;51.556;5.080;2023-05-10T11:01:21;100483.81;;;16.37;100.00
36748;BME280;22716;51.556;5.080;2023-05-10T11:04:17;100472.63;;;16.52;100.00
36748;BME280;22716;51.556;5.080;2023-05-10T11:06:48;100474.94;;;16.61;100.00
36748;BME280;22716;51.556;5.080;2023-05-10T11:09:24;100470.81;;;16.75;100.00
36748;BME280;22716;51.556;5.080;2023-05-10T11:11:54;100472.25;;;16.83;100.00
36748;BME280;22716;51.556;5.080;2023-05-10T11:14:25;100481.91;;;16.84;100.00
36748;BME280;22716;51.556;5.080;2023-05-10T11:16:55;100488.69;;;16.91;100.00
36748;BME280;22716;51.556;5.080;2023-05-10T11:19:27;100483.44;;;16.89;100.00
36748;BME280;22716;51.556;5.080;2023-05-10T11:22:13;100484.56;;;16.84;100.00
36748;BME280;22716;51.556;5.080;2023-05-10T11:24:56;100480.03;;;16.65;100.00
36748;BME280;22716;51.556;5.080;2023-05-10T11:27:26;100484.06;;;16.74;100.00
36748;BME280;22716;51.556;5.080;2023-05-10T11:29:55;100483.03;;;16.78;100.00
36748;BME280;22716;51.556;5.080;2023-05-10T11:32:24;100485.72;;;16.76;100.00
36748;BME280;22716;51.556;5.080;2023-05-10T11:34:54;100482.75;;;16.64;100.00
36748;BME280;22716;51.556;5.080;2023-05-10T11:37:23;100480.28;;;16.59;100.00
36748;BME280;22716;51.556;5.080;2023-05-10T11:39:55;100476.72;;;16.60;100.00
36748;BME280;22716;51.556;5.080;2023-05-10T11:42:23;100484.41;;;16.66;100.00
36748;BME280;22716;51.556;5.080;2023-05-10T11:44:53;100490.34;;;16.71;100.00
36748;BME280;22716;51.556;5.080;2023-05-10T11:47:22;100483.94;;;16.77;100.00
36748;BME280;22716;51.556;5.080;2023-05-10T11:49:51;100491.97;;;16.75;100.00
36748;BME280;22716;51.556;5.080;2023-05-10T11:52:20;100493.66;;;16.76;100.00
36748;BME280;22716;51.556;5.080;2023-05-10T11:54:54;100486.31;;;16.63;100.00
36748;BME280;22716;51.556;5.080;2023-05-10T11:57:28;100493.72;;;16.53;100.00
36748;BME280;22716;51.556;5.080;2023-05-10T11:59:57;100499.44;;;16.43;100.00
36748;BME280;22716;51.556;5.080;2023-05-10T12:02:29;100485.66;;;16.35;100.00
36748;BME280;22716;51.556;5.080;2023-05-10T12:04:58;100491.63;;;16.40;100.00
36748;BME280;22716;51.556;5.080;2023-05-10T12:07:27;100496.72;;;16.44;100.00
36748;BME280;22716;51.556;5.080;2023-05-10T12:10:07;100495.00;;;16.43;100.00
36748;BME280;22716;51.556;5.080;2023-05-10T12:12:40;100498.13;;;16.54;100.00
36748;BME280;22716;51.556;5.080;2023-05-10T12:15:12;100498.13;;;16.54;100.00
36748;BME280;22716;51.556;5.080;2023-05-10T12:17:41;100496.91;;;16.40;100.00
36748;BME280;22716;51.556;5.080;2023-05-10T12:20:17;100501.47;;;16.36;100.00
36748;BME280;22716;51.556;5.080;2023-05-10T12:22:49;100505.75;;;16.39;100.00
36748;BME280;22716;51.556;5.080;2023-05-10T12:25:22;100506.69;;;16.38;100.00
36748;BME280;22716;51.556;5.080;2023-05-10T12:27:52;100516.34;;;16.39;100.00
36748;BME280;22716;51.556;5.080;2023-05-10T12:30:23;100509.56;;;16.53;100.00
36748;BME280;22716;51.556;5.080;2023-05-10T12:32:54;100506.34;;;16.68;100.00
36748;BME280;22716;51.556;5.080;2023-05-10T12:35:30;100527.38;;;16.93;100.00
36748;BME280;22716;51.556;5.080;2023-05-10T12:38:00;100523.38;;;17.05;100.00
36748;BME280;22716;51.556;5.080;2023-05-10T12:40:33;100523.41;;;17.03;100.00
36748;BME280;22716;51.556;5.080;2023-05-10T12:43:02;100519.50;;;16.92;100.00
36748;BME280;22716;51.556;5.080;2023-05-10T12:45:32;100530.56;;;17.01;100.00
36748;BME280;22716;51.556;5.080;2023-05-10T12:48:01;100525.75;;;17.11;100.00
36748;BME280;22716;51.556;5.080;2023-05-10T12:50:31;100529.81;;;17.19;100.00
36748;BME280;22716;51.556;5.080;2023-05-10T12:53:00;100518.25;;;17.20;100.00
36748;BME280;22716;51.556;5.080;2023-05-10T12:55:29;100536.13;;;17.15;100.00
36748;BME280;22716;51.556;5.080;2023-05-10T12:58:00;100537.84;;;16.96;100.00
36748;BME280;22716;51.556;5.080;2023-05-10T13:00:30;100541.78;;;16.86;100.00
36748;BME280;22716;51.556;5.080;2023-05-10T13:02:59;100537.66;;;16.57;100.00
36748;BME280;22716;51.556;5.080;2023-05-10T13:05:28;100540.75;;;16.45;100.00
36748;BME280;22716;51.556;5.080;2023-05-10T13:07:59;100540.31;;;16.34;100.00